Tiempo atmosférico en la estación meteorológica de Machichaco, Bizkaia (93 m.)



Fecha
DESCASC
Temp. máxima en grados centígrados (hora)
DESCASC
Temp. mínima en grados centígrados (hora)
DESCASC
Temp. media en grados centígrados
DESCASC
Racha de viento máxima en m/sg (hora)
DESCASC
Velocidad máxima media en intervalos de 10 minutos(hora)
DESCASC
Precipitaciones diarias en mm
DESCASC
Precipitaciones de 00:00 a 06:00 en mm
DESCASC
Precipitaciones de 06:00 a 12:00 en mm
DESCASC
Precipitaciones de 12:00 a 18:00 en mm
DESCASC
Precipitaciones de 18:00 a 24:00 en mm
DESCASC
25-04-2019 19.6 (16:50) 9.9 (04:50) 14.8 23.89 (21:20) 17.22 (21:30) 0 0 0 0 0
24-04-2019 18.1 (15:00) 8.5 (00:50) 13.3 13.61 (22:10) 8.61 (06:20) 3.6 2.2 0 0.8 0.6
23-04-2019 18.7 (02:40) 8.9 (22:40) 13.8 24.72 (22:30) 19.44 (22:30) 13.4 0 0 9 4.4
22-04-2019 17.9 (23:30) 11.3 (00:00) 14.6 10.28 (17:10) 7.22 (16:20) 0 0 0 0 0
21-04-2019 15 (12:50) 10.7 (00:00) 12.8 10 (03:30) 7.5 (03:30) 0 0 0 0 0
20-04-2019 15.5 (17:10) 11.4 (00:00) 13.4 10 (20:50) 7.78 (12:30) 0 0 0 0 0
19-04-2019 19.8 (13:00) 11.7 (00:00) 15.7 7.78 (03:40) 5.83 (03:40) 0.2 0.2 0 0 0
18-04-2019 20 (01:20) 12.4 (00:00) 16.2 11.94 (07:50) 7.78 (02:30) 1.2 0 0 1.2 0
17-04-2019 19.5 (13:40) 12.8 (00:00) 16.2 14.44 (09:40) 5.83 (17:50) 0 0 0 0 0
16-04-2019 15.3 (15:40) 10.2 (00:00) 12.8 12.22 (00:40) 8.89 (02:50) 0.2 0.2 0 0 0
15-04-2019 22.4 (14:30) 12 (00:00) 17.2 23.33 (16:30) 16.11 (17:00) 13.8 0 0 8.8 5
14-04-2019 15.6 (13:30) 11.3 (00:00) 13.5 8.33 (22:30) 5.56 (22:50) 0 0 0 0 0
13-04-2019 14.6 (16:10) 8.5 (00:00) 11.6 11.94 (12:00) 9.17 (12:00) 0 0 0 0 0
12-04-2019 14.8 (16:20) 9.7 (00:00) 12.3 11.11 (00:10) 9.72 (00:10) 0 0 0 0 0
11-04-2019 12.4 (14:50) 10.3 (00:00) 11.3 16.11 (09:10) 13.89 (09:30) 0 0 0 0 0
10-04-2019 13.2 (17:10) 8.5 (00:00) 10.8 14.72 (23:10) 12.22 (23:10) 8.2 0 1.6 0 6.6
09-04-2019 17.5 (12:40) 8.6 (00:00) 13.1 15.28 (18:50) 12.78 (18:50) 2.4 0 0 0.2 2.2
08-04-2019 14.5 (06:30) 10.4 (00:00) 12.4 16.11 (09:50) 12.78 (10:00) 1.4 0 1.2 0.2 0
07-04-2019 14.1 (17:10) 7.3 (00:00) 10.7 17.5 (12:00) 12.22 (13:00) 5 3.4 1.6 0 0
06-04-2019 16.7 (14:50) 7.8 (00:00) 12.3 15 (23:00) 9.72 (03:00) 8 3 0 0 5
05-04-2019 15.5 (14:10) 8.8 (00:00) 12.2 10.28 (01:30) 7.5 (14:30) 1.4 0 0 0 1.4
04-04-2019 12.5 (22:40) 4.1 (00:00) 8.3 24.17 (02:20) 12.5 (00:10) 7.6 6.4 1.2 0 0
03-04-2019 9.6 (00:10) 4.5 (00:00) 7.1 29.72 (20:20) 18.89 (11:00) 27.2 2.2 8.8 3.8 12.4
02-04-2019 13.2 (13:00) 9.1 (00:00) 11.2 18.61 (23:10) 14.17 (23:10) 2 0 0 0 2
01-04-2019 16.5 (12:50) 11.1 (00:00) 13.8 9.17 (05:10) 4.72 (05:20) 1 0.4 0.6 0 0
31-03-2019 18.8 (14:00) 10 (00:00) 14.4 6.94 (17:00) 5.83 (20:20) 0 0 0 0 0
30-03-2019 20.7 (12:40) 11.3 (00:00) 16 17.22 (07:40) 11.67 (07:50) 0 0 0 0 0
29-03-2019 15.2 (14:40) 7.4 (00:00) 11.3 10.28 (17:10) 7.78 (17:10) 0 0 0 0 0
28-03-2019 14.1 (16:50) 8.4 (00:00) 11.3 8.89 (02:10) 6.11 (02:10) 0 0 0 0 0
27-03-2019 13.4 (16:00) 8.2 (00:00) 10.8 15 (00:40) 12.22 (00:20) 0 0 0 0 0

Gráficas

Temp. máximas Temp. mínimas Temp. medias Precipitaciones Rachas de viento máximas Velocidades máximas media en intervalos de 10 minutos

Datos horarios

Fecha y hora oficial Temperatura (ºC) Velocidad del viento (km/h) Dirección del viento Racha (km/h) Dirección de racha Precipitación (mm) Presión (hPa) Tendencia (hPa) Humedad (%)
2019-04-25 23:00:00 12.5 19 Oeste 41 Oeste 0 -- -- 59
2019-04-25 22:00:00 11.6 39 Oeste 86 Oeste 0 -- -- 73
2019-04-25 21:00:00 15.8 17 Sudoeste 51 Sudoeste 0 -- -- 42
2019-04-25 20:00:00 16.4 15 Sudoeste 51 Sudoeste 0 -- -- 41
2019-04-25 19:00:00 18.6 15 Sudoeste 37 Noroeste 0 -- -- 34
2019-04-25 18:00:00 18.3 18 Sudoeste 49 Sudoeste 0 -- -- 33
2019-04-25 17:00:00 19.6 15 Sudoeste 37 Oeste 0 -- -- 33
2019-04-25 16:00:00 19.2 12 Sudoeste 41 Sudoeste 0 -- -- 31
2019-04-25 15:00:00 18 13 Oeste 45 Sudoeste 0 -- -- 36
2019-04-25 14:00:00 17 18 Oeste 46 Oeste 0 -- -- 41
2019-04-25 13:00:00 16.7 14 Sudoeste 40 Sur 0 -- -- 46
2019-04-25 12:00:00 16.4 8 Sudoeste 34 Sudoeste 0 -- -- 48
2019-04-25 11:00:00 14.6 12 Sudoeste 39 Sudoeste 0 -- -- 49
2019-04-25 10:00:00 14 13 Sudoeste 45 Sudoeste 0 -- -- 51
2019-04-25 09:00:00 12.4 15 Sudoeste 37 Sudoeste 0 -- -- 52
2019-04-25 08:00:00 12.1 20 Sudoeste 41 Sur 0 -- -- 55
2019-04-25 07:00:00 11.2 6 Sur 26 Sudoeste 0 -- -- 61
2019-04-25 06:00:00 10.8 8 Sudoeste 23 Sudoeste 0 -- -- 69
2019-04-25 05:00:00 10 6 Sur 17 Sur 0 -- -- 84
2019-04-25 04:00:00 10.4 10 Sudeste 17 Este 0 -- -- 90
2019-04-25 03:00:00 10.8 4 Este 16 Noroeste 0 -- -- 88
2019-04-25 02:00:00 11.7 11 Noroeste 24 Noroeste 0 -- -- 82
2019-04-25 01:00:00 12.5 14 Noroeste 23 Noroeste 0 -- -- 82
2019-04-25 00:00:00 12.7 10 Oeste 26 Oeste 0 -- -- 70
2019-04-24 23:00:00 13.3 15 Oeste 49 Oeste 0 -- -- 70
2019-04-24 22:00:00 14.7 19 Sur 49 Sur 0 -- -- 62
2019-04-24 21:00:00 13.2 15 Sur 33 Sur 0.2 -- -- 74
2019-04-24 20:00:00 12.3 17 Sudeste 47 Sudeste 0.4 -- -- 85
2019-04-24 19:00:00 13.7 15 Sur 37 Sudeste 0 -- -- 76
2019-04-24 18:00:00 13.5 17 Sudeste 36 Sudeste 0.8 -- -- 74
2019-04-24 17:00:00 14.6 10 Sudeste 26 Sur 0 -- -- 65
2019-04-24 16:00:00 16.4 12 Sur 27 Sur 0 -- -- 52
2019-04-24 15:00:00 18.1 6 Sur 35 Sudoeste 0 -- -- 47
2019-04-24 14:00:00 15.9 11 Sur 34 Sur 0 -- -- 49
2019-04-24 13:00:00 13.9 9 Sur 34 Sudeste 0 -- -- 52
2019-04-24 12:00:00 12.2 18 Sur 42 Sur 0 -- -- 54
2019-04-24 11:00:00 12.5 10 Sur 32 Sudoeste 0 -- -- 53
2019-04-24 10:00:00 11.7 6 Norte 27 Sudoeste 0 -- -- 54
2019-04-24 09:00:00 12.2 4 Norte 25 Sudoeste 0 -- -- 57
2019-04-24 08:00:00 11 4 Noroeste 23 Sudoeste 0 -- -- 57
2019-04-24 07:00:00 9.9 13 Sur 49 Sur 0 -- -- 62
2019-04-24 06:00:00 10.2 29 Sur 41 Sur 0 -- -- 65
2019-04-24 05:00:00 10.5 21 Sur 31 Sur 0 -- -- 66
2019-04-24 04:00:00 10.2 13 Sudoeste 27 Sudoeste 0 -- -- 66
2019-04-24 03:00:00 9.9 10 Sudoeste 32 Sudoeste 0 -- -- 75
2019-04-24 02:00:00 9.3 15 Sudoeste 38 Sudoeste 0 -- -- 80
2019-04-24 01:00:00 8.7 15 Sudoeste 42 Oeste 2.2 -- -- 86
2019-04-24 00:00:00 9.2 27 Oeste 64 Oeste 0 -- -- 92
2019-04-23 23:00:00 9.3 57 Oeste 89 Oeste 4.4 -- -- 94
2019-04-23 22:00:00 12.4 24 Oeste 44 Oeste 0 -- -- 90
2019-04-23 21:00:00 11.5 7 Sur 14 Este 0 -- -- 90
2019-04-23 20:00:00 11.9 6 Sudeste 11 Sudeste 0 -- -- 87
2019-04-23 19:00:00 12.4 6 Sur 12 Sudeste 0 -- -- 85
2019-04-23 18:00:00 11.9 8 Sudoeste 10 Oeste 0.2 -- -- 88
2019-04-23 17:00:00 11.4 2 Sur 47 Sudoeste 1.8 -- -- 87
2019-04-23 16:00:00 11.9 20 Sudoeste 40 Sudoeste 2.8 -- -- 89
2019-04-23 15:00:00 13.5 16 Oeste 23 Oeste 4.2 -- -- 92
2019-04-23 14:00:00 14.5 13 Oeste 22 Oeste 0 -- -- 85
2019-04-23 13:00:00 15.1 14 Oeste 28 Oeste 0 -- -- 86
2019-04-23 12:00:00 17.3 2 Sudeste 11 Este 0 -- -- 64
2019-04-23 11:00:00 16.4 8 Sudeste 15 Sudeste 0 -- -- 67
2019-04-23 10:00:00 16.6 3 Sur 8 Sur 0 -- -- 64
2019-04-23 09:00:00 15.5 5 Sudoeste 10 Este 0 -- -- 65
2019-04-23 08:00:00 15.6 5 Sudeste 19 Sur 0 -- -- 60
2019-04-23 07:00:00 15.4 11 Sur 22 Sur 0 -- -- 60
2019-04-23 06:00:00 16.1 12 Sudoeste 25 Sudoeste 0 -- -- 57
2019-04-23 05:00:00 15.7 12 Este 21 Este 0 -- -- 60
2019-04-23 04:00:00 17.6 14 Sur 31 Oeste 0 -- -- 49
2019-04-23 03:00:00 18.7 12 Sur 33 Sur 0 -- -- 43
2019-04-23 02:00:00 18.4 16 Sur 34 Sur 0 -- -- 48
2019-04-23 01:00:00 18 9 Sur 29 Sudeste 0 -- -- 49
2019-04-23 00:00:00 17.6 10 Sur 26 Sur 0 -- -- 52
2019-04-22 23:00:00 17 9 Sur 18 Sur 0 -- -- 57
2019-04-22 22:00:00 16.6 8 Sudeste 21 Sudeste 0 -- -- 63
2019-04-22 21:00:00 16.6 14 Sudeste 24 Sudeste 0 -- -- 65
2019-04-22 20:00:00 16.1 14 Sudeste 24 Este 0 -- -- 66
2019-04-22 19:00:00 15.2 14 Sudeste 34 Sudeste 0 -- -- 79
2019-04-22 18:00:00 15.5 24 Este 37 Este 0 -- -- 79
2019-04-22 17:00:00 15.8 24 Este 35 Sudeste 0 -- -- 80
2019-04-22 16:00:00 16.4 22 Este 29 Este 0 -- -- 79
2019-04-22 15:00:00 16.6 20 Este 26 Este 0 -- -- 77
2019-04-22 14:00:00 17.4 12 Este 21 Este 0 -- -- 72
2019-04-22 13:00:00 15.3 14 Este 19 Este 0 -- -- 79
2019-04-22 12:00:00 15.7 8 Nordeste 16 Este 0 -- -- 78
2019-04-22 11:00:00 15.5 9 Este 13 Este 0 -- -- 75
2019-04-22 10:00:00 15 3 Norte 10 Este 0 -- -- 76
2019-04-22 09:00:00 13.1 5 Sudeste 8 Este 0 -- -- 85
2019-04-22 08:00:00 11.3 4 Sudeste 5 Sudeste 0 -- -- 91
2019-04-22 07:00:00 11.4 0 Calma 4 Sudoeste 0 -- -- 91
2019-04-22 06:00:00 11.6 3 Sudoeste 8 Oeste 0 -- -- 90
2019-04-22 05:00:00 11.9 4 Oeste 14 Oeste 0 -- -- 90
2019-04-22 04:00:00 12 9 Oeste 21 Sudoeste 0 -- -- 90
2019-04-22 03:00:00 12 15 Oeste 21 Sudoeste 0 -- -- 92
2019-04-22 02:00:00 12.1 15 Sudoeste 21 Sudoeste 0 -- -- 92
2019-04-22 01:00:00 12.2 12 Oeste 17 Oeste 0 -- -- 87
2019-04-22 00:00:00 11.7 8 Sudoeste 10 Sudoeste 0 -- -- 87
2019-04-21 23:00:00 12.1 7 Oeste 10 Sudoeste 0 -- -- 85
2019-04-21 22:00:00 12.4 4 Sudoeste 6 Sudeste 0 -- -- 85
2019-04-21 21:00:00 12.8 3 Sudeste 10 Sudeste 0 -- -- 84
2019-04-21 20:00:00 13 7 Sudeste 12 Este 0 -- -- 86
2019-04-21 19:00:00 13.3 10 Este 15 Nordeste 0 -- -- 82
2019-04-21 18:00:00 14.7 8 Este 21 Nordeste 0 -- -- 79
2019-04-21 17:00:00 14.2 16 Este 21 Este 0 -- -- 80
2019-04-21 16:00:00 14.6 17 Este 22 Este 0 -- -- 80
2019-04-21 15:00:00 13.8 16 Este 19 Este 0 -- -- 79
2019-04-21 14:00:00 14.2 7 Oeste 17 Oeste 0 -- -- 80
2019-04-21 13:00:00 14.8 12 Oeste 20 Oeste 0 -- -- 76
2019-04-21 12:00:00 14.1 15 Oeste 18 Oeste 0 -- -- 75
2019-04-21 11:00:00 14.1 11 Oeste 22 Oeste 0 -- -- 73
2019-04-21 10:00:00 13 17 Oeste 22 Oeste 0 -- -- 75
2019-04-21 09:00:00 12.6 15 Oeste 24 Oeste 0 -- -- 72
2019-04-21 08:00:00 11 8 Oeste 13 Oeste 0 -- -- 76
2019-04-21 07:00:00 11.2 4 Oeste 9 Sudoeste 0 -- -- 75
2019-04-21 06:00:00 12.9 5 Oeste 24 Oeste 0 -- -- 70
2019-04-21 05:00:00 13.1 18 Oeste 27 Sudoeste 0 -- -- 68
2019-04-21 04:00:00 13.3 19 Sudoeste 36 Sudoeste 0 -- -- 68
2019-04-21 03:00:00 13.3 25 Sudoeste 35 Sudoeste 0 -- -- 71
2019-04-21 02:00:00 13.1 8 Sur 33 Oeste 0 -- -- 70
2019-04-21 01:00:00 13.5 19 Oeste 32 Oeste 0 -- -- 70
2019-04-21 00:00:00 13.6 19 Oeste 31 Sudoeste 0 -- -- 70
2019-04-20 23:00:00 14 21 Oeste 32 Sudoeste 0 -- -- 62
2019-04-20 22:00:00 14.1 23 Oeste 35 Sudoeste 0 -- -- 64
2019-04-20 21:00:00 13.9 23 Oeste 36 Oeste 0 -- -- 68
2019-04-20 20:00:00 14.9 21 Oeste 30 Oeste 0 -- -- 66
2019-04-20 19:00:00 15.4 19 Oeste 25 Oeste 0 -- -- 74
2019-04-20 18:00:00 15.4 15 Oeste 26 Oeste 0 -- -- 77
2019-04-20 17:00:00 15.2 20 Oeste 30 Oeste 0 -- -- 86
2019-04-20 16:00:00 15 21 Oeste 27 Oeste 0 -- -- 84
2019-04-20 15:00:00 13.8 22 Oeste 32 Oeste 0 -- -- 90
2019-04-20 14:00:00 13.4 26 Oeste 33 Oeste 0 -- -- 93
2019-04-20 13:00:00 12.7 24 Oeste 34 Oeste 0 -- -- 96
2019-04-20 12:00:00 13.2 26 Oeste 35 Oeste 0 -- -- 92
2019-04-20 11:00:00 13.9 24 Oeste 35 Oeste 0 -- -- 86
2019-04-20 10:00:00 13.6 21 Oeste 35 Oeste 0 -- -- 88
2019-04-20 09:00:00 12.8 23 Oeste 32 Oeste 0 -- -- 91
2019-04-20 08:00:00 12.5 20 Oeste 30 Oeste 0 -- -- 88
2019-04-20 07:00:00 12.3 19 Oeste 24 Oeste 0 -- -- 84
2019-04-20 06:00:00 11.5 10 Oeste 13 Oeste 0 -- -- 83
2019-04-20 05:00:00 12.2 0 Calma 5 Nordeste 0 -- -- 76
2019-04-20 04:00:00 13.5 3 Oeste 15 Oeste 0 -- -- 69
2019-04-20 03:00:00 13.8 4 Oeste 12 Sudoeste 0 -- -- 67
2019-04-20 02:00:00 13 8 Sudoeste 10 Sudoeste 0 -- -- 82
2019-04-20 01:00:00 13 4 Sudeste 21 Este 0 -- -- 89
2019-04-20 00:00:00 13.5 14 Sudeste 20 Este 0 -- -- 92
2019-04-19 23:00:00 13.5 6 Este 13 Norte 0 -- -- 87
2019-04-19 22:00:00 15.1 4 Oeste 6 Oeste 0 -- -- 68
2019-04-19 21:00:00 14.8 4 Este 14 Sudeste 0 -- -- 65
2019-04-19 20:00:00 15.8 9 Sudeste 17 Sudeste 0 -- -- 65
2019-04-19 19:00:00 15.7 10 Sudeste 19 Sudeste 0 -- -- 72
2019-04-19 18:00:00 15.2 12 Sudeste 20 Sudeste 0 -- -- 82
2019-04-19 17:00:00 15.8 12 Sudeste 21 Este 0 -- -- 80
2019-04-19 16:00:00 16.6 12 Este 18 Sudeste 0 -- -- 75
2019-04-19 15:00:00 16 11 Este 15 Este 0 -- -- 72
2019-04-19 14:00:00 19.4 5 Nordeste 14 Este 0 -- -- 58
2019-04-19 13:00:00 19.8 8 Este 13 Este 0 -- -- 63
2019-04-19 12:00:00 17.9 6 Sudeste 11 Sudeste 0 -- -- 62
2019-04-19 11:00:00 15.3 3 Sur 11 Sur 0 -- -- 82
2019-04-19 10:00:00 12.6 6 Sudeste 13 Este 0 -- -- 97
2019-04-19 09:00:00 12.3 9 Sudeste 15 Sudeste 0 -- -- 97
2019-04-19 08:00:00 11.9 10 Sudeste 15 Sudeste 0 -- -- 97
2019-04-19 07:00:00 11.7 6 Sudeste 9 Sudeste 0 -- -- 98
2019-04-19 06:00:00 11.9 4 Oeste 14 Sudoeste 0 -- -- 98
2019-04-19 05:00:00 11.9 3 Sudoeste 22 Sudoeste 0.2 -- -- 98
2019-04-19 04:00:00 12.3 18 Oeste 28 Oeste 0 -- -- 98
2019-04-19 03:00:00 12.3 13 Oeste 19 Oeste 0 -- -- 97
2019-04-19 02:00:00 12.3 13 Oeste 21 Oeste 0 -- -- 96
2019-04-19 01:00:00 12.4 13 Oeste 20 Oeste 0 -- -- 95
2019-04-19 00:00:00 12.4 14 Oeste 20 Oeste 0 -- -- 93
2019-04-18 23:00:00 12.5 13 Oeste 18 Oeste 0 -- -- 90
2019-04-18 22:00:00 12.7 8 Sudoeste 11 Oeste 0 -- -- 87
2019-04-18 21:00:00 13.1 4 Sur 18 Sudeste 0 -- -- 85
2019-04-18 20:00:00 13.2 11 Sudeste 21 Sudeste 0 -- -- 87
2019-04-18 19:00:00 13.2 12 Sudeste 22 Sudeste 0 -- -- 94
2019-04-18 18:00:00 13.4 14 Este 24 Este 0 -- -- 95
2019-04-18 17:00:00 13.7 14 Este 18 Este 0 -- -- 93
2019-04-18 16:00:00 13.9 11 Nordeste 14 Nordeste 0 -- -- 95
2019-04-18 15:00:00 12.9 8 Oeste 30 Oeste 0 -- -- 98
2019-04-18 14:00:00 12.4 22 Oeste 28 Oeste 1 -- -- 97
2019-04-18 13:00:00 12.7 17 Oeste 26 Sudoeste 0.2 -- -- 96
2019-04-18 12:00:00 12.8 18 Oeste 29 Sudoeste 0 -- -- 95
2019-04-18 11:00:00 12.9 22 Oeste 31 Oeste 0 -- -- 93
2019-04-18 10:00:00 13.3 14 Oeste 37 Sudoeste 0 -- -- 89
2019-04-18 09:00:00 13.4 14 Oeste 36 Oeste 0 -- -- 86
2019-04-18 08:00:00 13.8 26 Oeste 43 Oeste 0 -- -- 84
2019-04-18 07:00:00 17.5 7 Sudoeste 36 Este 0 -- -- 57
2019-04-18 06:00:00 18.7 10 Este 36 Sur 0 -- -- 49
2019-04-18 05:00:00 18.9 14 Sudeste 28 Sudeste 0 -- -- 47
2019-04-18 04:00:00 18.6 14 Sudeste 31 Sudeste 0 -- -- 47
2019-04-18 03:00:00 19.3 18 Sudeste 40 Este 0 -- -- 47
2019-04-18 02:00:00 19.6 14 Sudeste 33 Sudeste 0 -- -- 47
2019-04-18 01:00:00 19.8 9 Sur 33 Sur 0 -- -- 46
2019-04-18 00:00:00 16.3 7 Nordeste 34 Sudeste 0 -- -- 77
2019-04-17 23:00:00 18.3 4 Oeste 12 Sudeste 0 -- -- 59
2019-04-17 22:00:00 15.4 8 Este 17 Este 0 -- -- 81
2019-04-17 21:00:00 16.5 13 Sudeste 26 Sudeste 0 -- -- 72
2019-04-17 20:00:00 15.4 14 Este 21 Este 0 -- -- 80
2019-04-17 19:00:00 16.4 14 Este 34 Este 0 -- -- 74
2019-04-17 18:00:00 16.5 19 Este 33 Este 0 -- -- 73
2019-04-17 17:00:00 18.5 15 Este 34 Este 0 -- -- 57
2019-04-17 16:00:00 19.5 11 Sudeste 30 Este 0 -- -- 54
2019-04-17 15:00:00 18.7 14 Sudeste 31 Este 0 -- -- 56
2019-04-17 14:00:00 18.4 15 Este 24 Este 0 -- -- 61
2019-04-17 13:00:00 19 11 Sudeste 30 Sudeste 0 -- -- 54
2019-04-17 12:00:00 18.2 9 Sudeste 27 Este 0 -- -- 55
2019-04-17 11:00:00 16.8 19 Este 42 Sur 0 -- -- 63
2019-04-17 10:00:00 16.9 19 Este 52 Sudeste 0 -- -- 56
2019-04-17 09:00:00 16.7 13 Sudeste 40 Sudeste 0 -- -- 57
2019-04-17 08:00:00 16.2 13 Sudeste 29 Sudeste 0 -- -- 57
2019-04-17 07:00:00 15.9 13 Sudeste 28 Este 0 -- -- 57
2019-04-17 06:00:00 15.5 12 Este 26 Este 0 -- -- 59
2019-04-17 05:00:00 14 15 Sudeste 30 Este 0 -- -- 72
2019-04-17 04:00:00 13.2 14 Sudeste 27 Este 0 -- -- 81
2019-04-17 03:00:00 13.4 13 Sudeste 23 Sudeste 0 -- -- 80
2019-04-17 02:00:00 12.8 12 Este 19 Este 0 -- -- 83
2019-04-17 01:00:00 13.2 14 Este 21 Este 0 -- -- 83
2019-04-17 00:00:00 13.5 15 Este 32 Este 0 -- -- 81
2019-04-16 23:00:00 14 18 Sudeste 31 Sudeste 0 -- -- 79
2019-04-16 22:00:00 13.4 19 Sudeste 35 Este 0 -- -- 81
2019-04-16 21:00:00 13.2 24 Este 36 Este 0 -- -- 85
2019-04-16 20:00:00 13.1 22 Sudeste 36 Este 0 -- -- 85
2019-04-16 19:00:00 13.8 21 Sudeste 33 Este 0 -- -- 84
2019-04-16 18:00:00 14.5 24 Este 33 Este 0 -- -- 80
2019-04-16 17:00:00 14.9 25 Este 34 Este 0 -- -- 78
2019-04-16 16:00:00 14.8 24 Este 33 Este 0 -- -- 78
2019-04-16 15:00:00 14.7 27 Este 32 Este 0 -- -- 78
2019-04-16 14:00:00 14.8 22 Este 27 Este 0 -- -- 77
2019-04-16 13:00:00 14.6 22 Este 27 Este 0 -- -- 76
2019-04-16 12:00:00 14.5 18 Este 22 Este 0 -- -- 77
2019-04-16 11:00:00 14.8 10 Este 14 Este 0 -- -- 75
2019-04-16 10:00:00 14.5 6 Nordeste 11 Este 0 -- -- 71
2019-04-16 09:00:00 13.6 5 Este 13 Oeste 0 -- -- 76
2019-04-16 08:00:00 11 7 Sudoeste 17 Sudoeste 0 -- -- 84
2019-04-16 07:00:00 10.7 10 Oeste 23 Oeste 0 -- -- 88
2019-04-16 06:00:00 11.1 15 Oeste 28 Oeste 0 -- -- 88
2019-04-16 05:00:00 11.6 12 Oeste 30 Oeste 0 -- -- 87
2019-04-16 04:00:00 11.7 15 Oeste 41 Oeste 0 -- -- 87
2019-04-16 03:00:00 11.8 29 Oeste 44 Oeste 0 -- -- 88
2019-04-16 02:00:00 12 28 Oeste 42 Oeste 0.2 -- -- 86
2019-04-16 01:00:00 12.3 23 Oeste 44 Oeste 0 -- -- 85
2019-04-16 00:00:00 12.3 26 Oeste 41 Sudoeste 0 -- -- 86
2019-04-15 23:00:00 12.1 24 Oeste 49 Oeste 0 -- -- 89
2019-04-15 22:00:00 12.6 35 Oeste 49 Oeste 0.2 -- -- 92
2019-04-15 21:00:00 12.5 27 Oeste 43 Sudoeste 0.2 -- -- 93
2019-04-15 20:00:00 12.6 36 Oeste 60 Oeste 0 -- -- 94
2019-04-15 19:00:00 12.8 46 Oeste 76 Oeste 4.6 -- -- 98
2019-04-15 18:00:00 13.1 36 Oeste 75 Oeste 7.4 -- -- 98
2019-04-15 17:00:00 13.8 58 Oeste 84 Oeste 1.4 -- -- 94
2019-04-15 16:00:00 19.2 24 Sur 59 Oeste 0 -- -- 66
2019-04-15 15:00:00 21.7 8 Este 13 Sudeste 0 -- -- 59
2019-04-15 14:00:00 22.2 0 Calma 11 Sudoeste 0 -- -- 60
2019-04-15 13:00:00 19.9 3 Sudoeste 12 Nordeste 0 -- -- 68
2019-04-15 12:00:00 17.2 6 Nordeste 19 Sur 0 -- -- 75
2019-04-15 11:00:00 17.8 14 Sudeste 26 Sudeste 0 -- -- 73
2019-04-15 10:00:00 16 14 Sudeste 26 Sudeste 0 -- -- 76
2019-04-15 09:00:00 13.8 5 Sudeste 29 Sudeste 0 -- -- 89
2019-04-15 08:00:00 12.9 17 Sudeste 24 Sudeste 0 -- -- 88
2019-04-15 07:00:00 12.5 15 Sudeste 25 Sudeste 0 -- -- 90
2019-04-15 06:00:00 12.7 13 Sudeste 22 Sudeste 0 -- -- 88
2019-04-15 05:00:00 12.5 14 Sudeste 24 Sudeste 0 -- -- 89
2019-04-15 04:00:00 12.4 16 Sudeste 30 Sudeste 0 -- -- 87
2019-04-15 03:00:00 12.4 19 Este 33 Sudeste 0 -- -- 85
2019-04-15 02:00:00 12.3 23 Sudeste 37 Este 0 -- -- 88
2019-04-15 01:00:00 12.7 24 Este 39 Este 0 -- -- 85
2019-04-15 00:00:00 12.4 17 Sudeste 29 Este 0 -- -- 89
2019-04-14 23:00:00 12.2 19 Este 30 Este 0 -- -- 91
2019-04-14 22:00:00 12.1 14 Sudeste 22 Sudeste 0 -- -- 90
2019-04-14 21:00:00 12.2 14 Sudeste 23 Sudeste 0 -- -- 89
2019-04-14 20:00:00 13.2 11 Sudeste 21 Sudeste 0 -- -- 83
2019-04-14 19:00:00 13.5 13 Sudeste 23 Sudeste 0 -- -- 82
2019-04-14 18:00:00 14 16 Este 29 Este 0 -- -- 78
2019-04-14 17:00:00 14 19 Este 27 Este 0 -- -- 78
2019-04-14 16:00:00 13.5 19 Este 24 Este 0 -- -- 87
2019-04-14 15:00:00 15.1 14 Este 21 Este 0 -- -- 71
2019-04-14 14:00:00 14.8 14 Este 19 Este 0 -- -- 67
2019-04-14 13:00:00 14.8 14 Este 21 Este 0 -- -- 74
2019-04-14 12:00:00 13.4 15 Este 18 Este 0 -- -- 77
2019-04-14 11:00:00 14.1 5 Este 12 Este 0 -- -- 72
2019-04-14 10:00:00 13.3 0 Calma 16 Sudeste 0 -- -- 78
2019-04-14 09:00:00 12.1 8 Sudeste 15 Oeste 0 -- -- 80
2019-04-14 08:00:00 11.7 11 Oeste 13 Oeste 0 -- -- 82
2019-04-14 07:00:00 11.3 0 Calma 12 Sudoeste 0 -- -- 82
2019-04-14 06:00:00 11.6 8 Sudoeste 12 Sudoeste 0 -- -- 86
2019-04-14 05:00:00 11.4 4 Sudoeste 8 Sudoeste 0 -- -- 84
2019-04-14 04:00:00 11.6 8 Sudoeste 9 Sudoeste 0 -- -- 77
2019-04-14 03:00:00 12.1 4 Sudoeste 9 Sudeste 0 -- -- 75
2019-04-14 02:00:00 12.3 6 Sudeste 12 Sudeste 0 -- -- 56
2019-04-14 01:00:00 11.9 7 Sudeste 11 Sudeste 0 -- -- 63
2019-04-14 00:00:00 12.7 9 Sudeste 22 Sudeste 0 -- -- 61
2019-04-13 23:00:00 12.1 14 Sudeste 22 Sudeste 0 -- -- 74
2019-04-13 22:00:00 11.8 16 Sudeste 25 Sudeste 0 -- -- 84
2019-04-13 21:00:00 12 17 Sudeste 30 Sudeste 0 -- -- 82
2019-04-13 20:00:00 13 20 Sudeste 30 Sudeste 0 -- -- 74
2019-04-13 19:00:00 13.7 20 Sudeste 33 Este 0 -- -- 74
2019-04-13 18:00:00 14 21 Este 32 Sudeste 0 -- -- 71
2019-04-13 17:00:00 14.1 24 Este 36 Este 0 -- -- 70
2019-04-13 16:00:00 14.4 23 Este 35 Este 0 -- -- 69
2019-04-13 15:00:00 14.1 26 Este 36 Este 0 -- -- 65
2019-04-13 14:00:00 14 25 Este 40 Este 0 -- -- 66
2019-04-13 13:00:00 13.6 27 Este 40 Este 0 -- -- 68
2019-04-13 12:00:00 12.8 33 Este 43 Este 0 -- -- 65
2019-04-13 11:00:00 12.7 25 Este 38 Este 0 -- -- 67
2019-04-13 10:00:00 12.3 20 Este 29 Este 0 -- -- 61
2019-04-13 09:00:00 10.8 14 Sudeste 21 Este 0 -- -- 67
2019-04-13 08:00:00 9.2 9 Sudeste 19 Sudeste 0 -- -- 65
2019-04-13 07:00:00 8.7 12 Sudeste 23 Sudeste 0 -- -- 68
2019-04-13 06:00:00 8.9 9 Sudeste 26 Sudeste 0 -- -- 66
2019-04-13 05:00:00 9 12 Sudeste 19 Sudeste 0 -- -- 67
2019-04-13 04:00:00 9.1 9 Sudeste 24 Sudeste 0 -- -- 68
2019-04-13 03:00:00 9.4 14 Sudeste 22 Sudeste 0 -- -- 70
2019-04-13 02:00:00 9.4 10 Sudeste 20 Sudeste 0 -- -- 70
2019-04-13 01:00:00 9.5 10 Sudeste 19 Sudeste 0 -- -- 71
2019-04-13 00:00:00 9.7 9 Sudeste 18 Sudeste 0 -- -- 72
2019-04-12 23:00:00 9.8 8 Sudeste 15 Sudeste 0 -- -- 71
2019-04-12 22:00:00 9.9 9 Sudeste 17 Este 0 -- -- 71
2019-04-12 21:00:00 10.2 11 Este 15 Este 0 -- -- 72
2019-04-12 20:00:00 12.4 6 Este 13 Este 0 -- -- 68
2019-04-12 19:00:00 13.2 8 Este 12 Este 0 -- -- 64
2019-04-12 18:00:00 13.4 7 Nordeste 13 Nordeste 0 -- -- 68
2019-04-12 17:00:00 13.4 4 Norte 11 Noroeste 0 -- -- 67
2019-04-12 16:00:00 14.6 8 Noroeste 15 Noroeste 0 -- -- 68
2019-04-12 15:00:00 14.1 12 Noroeste 18 Noroeste 0 -- -- 73
2019-04-12 14:00:00 13.4 12 Noroeste 17 Oeste 0 -- -- 71
2019-04-12 13:00:00 13.4 11 Noroeste 15 Noroeste 0 -- -- 72
2019-04-12 12:00:00 13 8 Noroeste 14 Noroeste 0 -- -- 75
2019-04-12 11:00:00 12 10 Noroeste 15 Noroeste 0 -- -- 76
2019-04-12 10:00:00 11.7 9 Noroeste 16 Noroeste 0 -- -- 77
2019-04-12 09:00:00 10.9 12 Noroeste 15 Noroeste 0 -- -- 81
2019-04-12 08:00:00 10.7 12 Noroeste 19 Oeste 0 -- -- 84
2019-04-12 07:00:00 10.5 13 Oeste 31 Oeste 0 -- -- 88
2019-04-12 06:00:00 10.2 16 Oeste 29 Oeste 0 -- -- 86
2019-04-12 05:00:00 10.3 17 Oeste 34 Oeste 0 -- -- 86
2019-04-12 04:00:00 11 24 Oeste 32 Oeste 0 -- -- 84
2019-04-12 03:00:00 10.8 27 Oeste 36 Oeste 0 -- -- 84
2019-04-12 02:00:00 11 30 Oeste 39 Oeste 0 -- -- 81
2019-04-12 01:00:00 11.1 34 Oeste 40 Oeste 0 -- -- 81
2019-04-12 00:00:00 11.2 30 Oeste 38 Oeste 0 -- -- 82
2019-04-11 23:00:00 11.1 30 Oeste 36 Oeste 0 -- -- 78
2019-04-11 22:00:00 11.1 32 Oeste 39 Oeste 0 -- -- 77
2019-04-11 21:00:00 11.1 29 Oeste 35 Oeste 0 -- -- 80
2019-04-11 20:00:00 11.6 25 Oeste 32 Oeste 0 -- -- 81
2019-04-11 19:00:00 11.8 25 Oeste 36 Oeste 0 -- -- 77
2019-04-11 18:00:00 11.6 28 Noroeste 36 Oeste 0 -- -- 76
2019-04-11 17:00:00 12 27 Noroeste 33 Noroeste 0 -- -- 78
2019-04-11 16:00:00 12.3 25 Noroeste 31 Noroeste 0 -- -- 78
2019-04-11 15:00:00 12.2 24 Noroeste 46 Oeste 0 -- -- 80
2019-04-11 14:00:00 10.6 45 Oeste 53 Oeste 0 -- -- 87
2019-04-11 13:00:00 10.9 37 Oeste 46 Oeste 0 -- -- 89
2019-04-11 12:00:00 10.9 30 Oeste 49 Oeste 0 -- -- 84
2019-04-11 11:00:00 11.2 45 Oeste 55 Oeste 0 -- -- 88
2019-04-11 10:00:00 10.9 46 Oeste 58 Oeste 0 -- -- 85
2019-04-11 09:00:00 10.9 48 Oeste 57 Oeste 0 -- -- 79
2019-04-11 08:00:00 10.5 27 Oeste 56 Oeste 0 -- -- 89
2019-04-11 07:00:00 10.7 32 Oeste 46 Oeste 0 -- -- 90
2019-04-11 06:00:00 11 36 Oeste 43 Oeste 0 -- -- 84
2019-04-11 05:00:00 11.1 33 Oeste 42 Oeste 0 -- -- 83
2019-04-11 04:00:00 11 31 Oeste 39 Oeste 0 -- -- 81
2019-04-11 03:00:00 11.1 31 Noroeste 37 Oeste 0 -- -- 81
2019-04-11 02:00:00 11.2 28 Oeste 40 Oeste 0 -- -- 83
2019-04-11 01:00:00 11.3 29 Noroeste 36 Oeste 0 -- -- 83
2019-04-11 00:00:00 10.6 27 Oeste 53 Oeste 6.4 -- -- 78
2019-04-10 23:00:00 11.5 31 Oeste 41 Oeste 0.2 -- -- 87
2019-04-10 22:00:00 11.6 32 Oeste 41 Oeste 0 -- -- 84
2019-04-10 21:00:00 11.6 32 Oeste 38 Noroeste 0 -- -- 80
2019-04-10 20:00:00 12 30 Noroeste 37 Noroeste 0 -- -- 82
2019-04-10 19:00:00 12 32 Noroeste 39 Oeste 0 -- -- 83
2019-04-10 18:00:00 12.4 28 Noroeste 34 Noroeste 0 -- -- 80
2019-04-10 17:00:00 13 28 Noroeste 34 Noroeste 0 -- -- 77
2019-04-10 16:00:00 12.4 28 Noroeste 33 Oeste 0 -- -- 77
2019-04-10 15:00:00 12.2 24 Oeste 29 Oeste 0 -- -- 77
2019-04-10 14:00:00 12.2 22 Oeste 32 Oeste 0 -- -- 79
2019-04-10 13:00:00 12.3 23 Oeste 30 Oeste 0 -- -- 76
2019-04-10 12:00:00 12.4 20 Oeste 29 Oeste 0 -- -- 78
2019-04-10 11:00:00 12.2 24 Oeste 29 Oeste 0 -- -- 75
2019-04-10 10:00:00 11.8 13 Noroeste 22 Noroeste 0 -- -- 79
2019-04-10 09:00:00 10.2 12 Sudoeste 28 Sudoeste 1.6 -- -- 87
2019-04-10 08:00:00 9.8 16 Oeste 26 Sudoeste 0 -- -- 84
2019-04-10 07:00:00 9.8 15 Oeste 29 Sudoeste 0 -- -- 79
2019-04-10 06:00:00 10.3 19 Oeste 32 Oeste 0 -- -- 75
2019-04-10 05:00:00 10.1 21 Oeste 37 Oeste 0 -- -- 78
2019-04-10 04:00:00 9.9 22 Oeste 36 Oeste 0 -- -- 76
2019-04-10 03:00:00 9.3 0 Calma 6 Este 0 -- -- 79
2019-04-10 02:00:00 9.3 4 Sudoeste 12 Sur 0 -- -- 74
2019-04-10 01:00:00 9.4 0 Calma 6 Sur 0 -- -- 80
2019-04-10 00:00:00 8.8 4 Sudoeste 8 Sur 0 -- -- 85
2019-04-09 23:00:00 9.3 0 Calma 8 Sudeste 0 -- -- 86
2019-04-09 22:00:00 10.2 2 Noroeste 20 Sudoeste 0 -- -- 84
2019-04-09 21:00:00 10.3 14 Sudoeste 29 Oeste 0 -- -- 85
2019-04-09 20:00:00 9.9 14 Oeste 42 Oeste 0.8 -- -- 82
2019-04-09 19:00:00 11.1 45 Oeste 55 Oeste 1.4 -- -- 86
2019-04-09 18:00:00 11.9 43 Oeste 52 Oeste 0.2 -- -- 88
2019-04-09 17:00:00 12.1 35 Oeste 45 Oeste 0 -- -- 84
2019-04-09 16:00:00 12.8 27 Oeste 42 Oeste 0 -- -- 82
2019-04-09 15:00:00 13.4 17 Oeste 23 Oeste 0 -- -- 70
2019-04-09 14:00:00 14.5 8 Oeste 19 Noroeste 0 -- -- 65
2019-04-09 13:00:00 17.3 6 Oeste 28 Sudoeste 0 -- -- 46
2019-04-09 12:00:00 16.4 12 Sudoeste 40 Sudoeste 0 -- -- 51
2019-04-09 11:00:00 14.7 22 Sudoeste 39 Sur 0 -- -- 51
2019-04-09 10:00:00 13.8 27 Sudoeste 44 Sudoeste 0 -- -- 51
2019-04-09 09:00:00 12.7 31 Sudoeste 53 Sur 0 -- -- 53
2019-04-09 08:00:00 11.9 34 Sudoeste 55 Sur 0 -- -- 55
2019-04-09 07:00:00 11.8 31 Sudoeste 50 Sudoeste 0 -- -- 55
2019-04-09 06:00:00 10.5 6 Sur 20 Sudoeste 0 -- -- 66
2019-04-09 05:00:00 8.9 6 Sudeste 19 Sur 0 -- -- 75
2019-04-09 04:00:00 9.5 8 Sudeste 14 Sudeste 0 -- -- 71
2019-04-09 03:00:00 9.8 9 Sudeste 16 Sudeste 0 -- -- 69
2019-04-09 02:00:00 10.4 9 Sudeste 20 Sudeste 0 -- -- 66
2019-04-09 01:00:00 10.7 14 Este 24 Sudeste 0 -- -- 67
2019-04-09 00:00:00 10.6 14 Sudeste 23 Sudeste 0 -- -- 67
2019-04-08 23:00:00 10.6 10 Sudeste 15 Este 0 -- -- 77
2019-04-08 22:00:00 10.8 9 Este 19 Este 0 -- -- 73
2019-04-08 21:00:00 11 9 Sudeste 17 Este 0 -- -- 84
2019-04-08 20:00:00 12.1 6 Sudeste 11 Este 0 -- -- 77
2019-04-08 19:00:00 13.6 7 Este 10 Este 0 -- -- 76
2019-04-08 18:00:00 13.4 3 Este 7 Norte 0 -- -- 72
2019-04-08 17:00:00 14 5 Noroeste 14 Oeste 0 -- -- 71
2019-04-08 16:00:00 13.5 12 Oeste 24 Oeste 0 -- -- 72
2019-04-08 15:00:00 13.6 19 Oeste 27 Oeste 0 -- -- 71
2019-04-08 14:00:00 13.1 17 Oeste 31 Oeste 0 -- -- 77
2019-04-08 13:00:00 12.4 21 Oeste 35 Oeste 0.2 -- -- 84
2019-04-08 12:00:00 11.2 27 Oeste 46 Oeste 1.2 -- -- 94
2019-04-08 11:00:00 12 40 Oeste 56 Oeste 0 -- -- 89
2019-04-08 10:00:00 12.1 46 Oeste 58 Oeste 0 -- -- 86
2019-04-08 09:00:00 13.1 24 Oeste 39 Sudoeste 0 -- -- 68
2019-04-08 08:00:00 13.9 17 Sudoeste 40 Sudoeste 0 -- -- 63
2019-04-08 07:00:00 14 27 Sudoeste 41 Sudoeste 0 -- -- 61
2019-04-08 06:00:00 14 24 Sudoeste 47 Sur 0 -- -- 55
2019-04-08 05:00:00 13.6 34 Sudoeste 55 Sudoeste 0 -- -- 57
2019-04-08 04:00:00 13.3 33 Sudoeste 51 Sudoeste 0 -- -- 56
2019-04-08 03:00:00 12.4 31 Sur 51 Sudoeste 0 -- -- 58
2019-04-08 02:00:00 12.2 14 Sur 40 Sur 0 -- -- 59
2019-04-08 01:00:00 12.5 22 Sur 42 Sur 0 -- -- 58
2019-04-08 00:00:00 12.5 9 Sur 35 Sur 0 -- -- 57
2019-04-07 23:00:00 10.5 12 Sudeste 25 Sudeste 0 -- -- 79
2019-04-07 22:00:00 10.6 17 Sudeste 32 Este 0 -- -- 79
2019-04-07 21:00:00 10.9 23 Este 38 Este 0 -- -- 79
2019-04-07 20:00:00 11.1 25 Este 35 Este 0 -- -- 76
2019-04-07 19:00:00 12.1 23 Este 29 Este 0 -- -- 73
2019-04-07 18:00:00 12.8 11 Nordeste 17 Este 0 -- -- 69
2019-04-07 17:00:00 13.9 7 Noroeste 19 Oeste 0 -- -- 65
2019-04-07 16:00:00 13 17 Oeste 36 Oeste 0 -- -- 67
2019-04-07 15:00:00 12.3 30 Oeste 48 Oeste 0 -- -- 66
2019-04-07 14:00:00 12 42 Oeste 54 Oeste 0 -- -- 67
2019-04-07 13:00:00 11.5 44 Oeste 62 Oeste 0 -- -- 65
2019-04-07 12:00:00 10.6 43 Oeste 63 Oeste 0 -- -- 75
2019-04-07 11:00:00 9.7 24 Oeste 49 Oeste 0.2 -- -- 83
2019-04-07 10:00:00 8.6 24 Oeste 45 Oeste 0 -- -- 86
2019-04-07 09:00:00 8.2 20 Oeste 50 Oeste 1 -- -- 88
2019-04-07 08:00:00 8.6 30 Oeste 51 Oeste 0.2 -- -- 83
2019-04-07 07:00:00 8.4 22 Oeste 47 Oeste 0.2 -- -- 81
2019-04-07 06:00:00 8.7 26 Oeste 58 Oeste 0 -- -- 78
2019-04-07 05:00:00 8.7 26 Oeste 51 Oeste 0 -- -- 80
2019-04-07 04:00:00 8.4 24 Oeste 44 Oeste 0 -- -- 80
2019-04-07 03:00:00 8 18 Oeste 39 Oeste 0 -- -- 86
2019-04-07 02:00:00 7.8 14 Oeste 27 Oeste 0.6 -- -- 88
2019-04-07 01:00:00 7.6 18 Oeste 47 Oeste 2.8 -- -- 91
2019-04-07 00:00:00 7.9 32 Oeste 48 Oeste 3.2 -- -- 92
2019-04-06 23:00:00 8.5 31 Oeste 54 Oeste 0.2 -- -- 84
2019-04-06 22:00:00 8.8 4 Sudoeste 12 Sur 0 -- -- 75
2019-04-06 21:00:00 9.5 4 Sudeste 28 Nordeste 0.6 -- -- 69
2019-04-06 20:00:00 9.3 5 Sudoeste 26 Sudeste 1 -- -- 78
2019-04-06 19:00:00 11.4 13 Este 22 Este 0 -- -- 73
2019-04-06 18:00:00 12 15 Este 26 Nordeste 0 -- -- 69
2019-04-06 17:00:00 12.1 23 Nordeste 29 Nordeste 0 -- -- 71
2019-04-06 16:00:00 12.9 18 Nordeste 26 Nordeste 0 -- -- 65
2019-04-06 15:00:00 16.1 8 Oeste 33 Oeste 0 -- -- 46
2019-04-06 14:00:00 15.1 18 Oeste 33 Oeste 0 -- -- 47
2019-04-06 13:00:00 15 13 Oeste 38 Oeste 0 -- -- 50
2019-04-06 12:00:00 13 12 Sudoeste 39 Sudoeste 0 -- -- 53
2019-04-06 11:00:00 11.5 19 Sudoeste 52 Oeste 0 -- -- 57
2019-04-06 10:00:00 10.3 14 Sudoeste 40 Oeste 0 -- -- 60
2019-04-06 09:00:00 8.8 20 Sudoeste 36 Sur 0 -- -- 64
2019-04-06 08:00:00 7.8 16 Sur 32 Sur 0 -- -- 69
2019-04-06 07:00:00 8 19 Sur 28 Sur 0 -- -- 74
2019-04-06 06:00:00 8.1 9 Sur 14 Sudoeste 0 -- -- 87
2019-04-06 05:00:00 8 9 Sur 14 Sudeste 0 -- -- 92
2019-04-06 04:00:00 8.6 7 Este 26 Noroeste 1.2 -- -- 91
2019-04-06 03:00:00 9 35 Oeste 50 Noroeste 1.8 -- -- 87
2019-04-06 02:00:00 9.7 23 Oeste 35 Oeste 0 -- -- 89
2019-04-06 01:00:00 9.1 8 Sudoeste 18 Oeste 0 -- -- 83
2019-04-06 00:00:00 8.9 7 Sudoeste 13 Sudeste 0 -- -- 85
2019-04-05 23:00:00 9 8 Sudeste 21 Este 0 -- -- 84
2019-04-05 22:00:00 9.1 12 Sudeste 23 Sudeste 0 -- -- 84
2019-04-05 21:00:00 9.2 10 Sudeste 18 Sudeste 0 -- -- 86
2019-04-05 20:00:00 9.2 6 Sudeste 23 Este 1.4 -- -- 89
2019-04-05 19:00:00 10.5 18 Nordeste 23 Nordeste 0 -- -- 84
2019-04-05 18:00:00 11 5 Norte 18 Norte 0 -- -- 82
2019-04-05 17:00:00 11.5 7 Norte 25 Noroeste 0 -- -- 81
2019-04-05 16:00:00 11.9 17 Noroeste 31 Noroeste 0 -- -- 79
2019-04-05 15:00:00 13.1 20 Noroeste 35 Noroeste 0 -- -- 74
2019-04-05 14:00:00 15.2 6 Noroeste 18 Sur 0 -- -- 49
2019-04-05 13:00:00 13.9 7 Sur 20 Oeste 0 -- -- 54
2019-04-05 12:00:00 13.1 9 Este 23 Sudeste 0 -- -- 54
2019-04-05 11:00:00 11.9 9 Sur 26 Sur 0 -- -- 56
2019-04-05 10:00:00 11.6 11 Sur 27 Sur 0 -- -- 54
2019-04-05 09:00:00 11.1 14 Sur 25 Sudeste 0 -- -- 53
2019-04-05 08:00:00 10.2 7 Sur 19 Sudeste 0 -- -- 55
2019-04-05 07:00:00 10.3 4 Sudeste 19 Sudoeste 0 -- -- 63
2019-04-05 06:00:00 10.8 11 Sudoeste 21 Sur 0 -- -- 56
2019-04-05 05:00:00 10.7 7 Sur 28 Sudoeste 0 -- -- 58
2019-04-05 04:00:00 11 15 Sudoeste 36 Sudoeste 0 -- -- 56
2019-04-05 03:00:00 10.9 13 Sur 32 Sudoeste 0 -- -- 58
2019-04-05 02:00:00 10.4 15 Sur 37 Sudoeste 0 -- -- 60
2019-04-05 01:00:00 10.4 12 Sur 32 Sudoeste 0 -- -- 59
2019-04-05 00:00:00 11.4 13 Sur 31 Sur 0 -- -- 53
2019-04-04 23:00:00 12.2 6 Sudoeste 27 Sudoeste 0 -- -- 47
2019-04-04 22:00:00 12.1 7 Sudoeste 13 Sudoeste 0 -- -- 45
2019-04-04 21:00:00 11.2 6 Sudoeste 23 Sudeste 0 -- -- 50
2019-04-04 20:00:00 10.4 15 Sudeste 32 Este 0 -- -- 71
2019-04-04 19:00:00 10.5 24 Este 39 Este 0 -- -- 69
2019-04-04 18:00:00 11.1 26 Este 37 Este 0 -- -- 67
2019-04-04 17:00:00 10.9 24 Este 32 Este 0 -- -- 67
2019-04-04 16:00:00 11.7 17 Este 22 Este 0 -- -- 63
2019-04-04 15:00:00 12.3 7 Noroeste 19 Noroeste 0 -- -- 57
2019-04-04 14:00:00 12.1 13 Oeste 31 Oeste 0 -- -- 61
2019-04-04 13:00:00 10.3 14 Oeste 34 Oeste 0 -- -- 68
2019-04-04 12:00:00 9.7 14 Sudoeste 52 Sudoeste 0 -- -- 71
2019-04-04 11:00:00 7.7 21 Sudoeste 49 Oeste 0.4 -- -- 74
2019-04-04 10:00:00 6.3 26 Oeste 49 Oeste 0.2 -- -- 82
2019-04-04 09:00:00 5.5 23 Sudoeste 50 Sudoeste 0.2 -- -- 83
2019-04-04 08:00:00 5 28 Oeste 58 Oeste 0.4 -- -- 86
2019-04-04 07:00:00 4.7 17 Oeste 54 Oeste 0 -- -- 85
2019-04-04 06:00:00 4.2 23 Oeste 67 Oeste 2.6 -- -- 91
2019-04-04 05:00:00 4.5 19 Oeste 56 Sudoeste 1.8 -- -- 91
2019-04-04 04:00:00 5.2 24 Oeste 62 Oeste 0.8 -- -- 89
2019-04-04 03:00:00 5.5 26 Oeste 87 Oeste 0 -- -- 87
2019-04-04 02:00:00 5.8 24 Oeste 65 Oeste 0.6 -- -- 87
2019-04-04 01:00:00 5.4 26 Oeste 77 Oeste 0.6 -- -- 84
2019-04-04 00:00:00 5.7 29 Sudoeste 62 Oeste 0 -- -- 83
2019-04-03 23:00:00 6.4 40 Oeste 74 Oeste 4.2 -- -- 81
2019-04-03 22:00:00 5 50 Oeste 71 Oeste 3.8 -- -- 91
2019-04-03 21:00:00 4.7 30 Oeste 107 Oeste 1.2 -- -- 85
2019-04-03 20:00:00 6.8 27 Oeste 68 Oeste 2.6 -- -- 78
2019-04-03 19:00:00 7.3 43 Oeste 79 Oeste 0.6 -- -- 80
2019-04-03 18:00:00 7.5 59 Oeste 84 Oeste 0.2 -- -- 82
2019-04-03 17:00:00 6.7 27 Oeste 95 Oeste 1.8 -- -- 90
2019-04-03 16:00:00 6.9 41 Oeste 63 Oeste 0.4 -- -- 81
2019-04-03 15:00:00 6 25 Oeste 85 Oeste 1.2 -- -- 82
2019-04-03 14:00:00 6.8 34 Oeste 67 Oeste 0.2 -- -- 79
2019-04-03 13:00:00 8.7 31 Oeste 56 Oeste 0 -- -- 77
2019-04-03 12:00:00 8.1 23 Oeste 57 Oeste 0.4 -- -- 84
2019-04-03 11:00:00 5.4 68 Oeste 98 Oeste 2.8 -- -- 94
2019-04-03 10:00:00 6.7 22 Oeste 51 Oeste 1.8 -- -- 89
2019-04-03 09:00:00 6.9 20 Oeste 63 Oeste 1.2 -- -- 88
2019-04-03 08:00:00 7.7 51 Oeste 74 Oeste 1 -- -- 89
2019-04-03 07:00:00 7.9 34 Oeste 96 Oeste 1.6 -- -- 91
2019-04-03 06:00:00 8.4 27 Oeste 85 Oeste 1.2 -- -- 89
2019-04-03 05:00:00 8.4 50 Oeste 73 Oeste 0.2 -- -- 85
2019-04-03 04:00:00 9 28 Oeste 63 Oeste 0 -- -- 82
2019-04-03 03:00:00 9.2 18 Oeste 45 Oeste 0 -- -- 84
2019-04-03 02:00:00 9.1 25 Oeste 47 Oeste 0.2 -- -- 86
2019-04-03 01:00:00 9.2 41 Oeste 60 Oeste 0.6 -- -- 88
2019-04-03 00:00:00 9.3 26 Oeste 67 Oeste 1 -- -- 92
2019-04-02 23:00:00 9.8 25 Oeste 59 Noroeste 0.6 -- -- 93
2019-04-02 22:00:00 11 41 Oeste 57 Oeste 0 -- -- 79
2019-04-02 21:00:00 11.2 36 Oeste 50 Oeste 0.4 -- -- 81
2019-04-02 20:00:00 11.8 40 Oeste 49 Oeste 0 -- -- 80
2019-04-02 19:00:00 12 35 Oeste 53 Oeste 0 -- -- 85
2019-04-02 18:00:00 12.3 45 Oeste 51 Oeste 0 -- -- 80
2019-04-02 17:00:00 12.5 40 Oeste 46 Oeste 0 -- -- 77
2019-04-02 16:00:00 12.8 37 Oeste 45 Oeste 0 -- -- 78
2019-04-02 15:00:00 12.9 37 Oeste 47 Oeste 0 -- -- 77
2019-04-02 14:00:00 13.1 39 Oeste 48 Oeste 0 -- -- 79
2019-04-02 13:00:00 13.2 33 Oeste 51 Oeste 0 -- -- 78
2019-04-02 12:00:00 12.5 35 Oeste 49 Oeste 0 -- -- 85
2019-04-02 11:00:00 12.6 28 Oeste 52 Oeste 0 -- -- 83
2019-04-02 10:00:00 12.3 29 Oeste 49 Oeste 0 -- -- 84
2019-04-02 09:00:00 11.5 30 Oeste 48 Oeste 0 -- -- 85
2019-04-02 08:00:00 11.7 27 Oeste 40 Oeste 0 -- -- 78
2019-04-02 07:00:00 12 17 Oeste 29 Sudoeste 0 -- -- 73
2019-04-02 06:00:00 11.7 12 Oeste 22 Sudoeste 0 -- -- 76
2019-04-02 05:00:00 12 10 Oeste 23 Oeste 0 -- -- 75
2019-04-02 04:00:00 12.2 12 Oeste 18 Oeste 0 -- -- 79
2019-04-02 03:00:00 11.6 8 Oeste 17 Oeste 0 -- -- 83
2019-04-02 02:00:00 12 9 Oeste 17 Sudoeste 0 -- -- 89
2019-04-02 01:00:00 12.3 11 Oeste 16 Oeste 0 -- -- 91
2019-04-02 00:00:00 12.6 5 Oeste 10 Noroeste 0 -- -- 90
2019-04-01 23:00:00 13.1 4 Nordeste 13 Este 0 -- -- 79
2019-04-01 22:00:00 13.3 11 Este 15 Este 0 -- -- 71
2019-04-01 21:00:00 13.3 9 Sudeste 18 Sudeste 0 -- -- 67
2019-04-01 20:00:00 13.2 11 Sudeste 20 Este 0 -- -- 70
2019-04-01 19:00:00 13.3 13 Este 20 Este 0 -- -- 72
2019-04-01 18:00:00 13.6 11 Sudeste 18 Este 0 -- -- 81
2019-04-01 17:00:00 13.7 12 Sudeste 21 Este 0 -- -- 77
2019-04-01 16:00:00 13.2 11 Sudeste 18 Sudeste 0 -- -- 78
2019-04-01 15:00:00 13.6 14 Sudeste 22 Sudeste 0 -- -- 71
2019-04-01 14:00:00 14.3 13 Este 19 Este 0 -- -- 75
2019-04-01 13:00:00 16.4 16 Este 22 Este 0 -- -- 67
2019-04-01 12:00:00 13.6 8 Sudeste 18 Este 0 -- -- 75
2019-04-01 11:00:00 12.4 10 Este 15 Este 0 -- -- 81
2019-04-01 10:00:00 11.8 5 Sudeste 15 Sudeste 0 -- -- 76
2019-04-01 09:00:00 11.3 8 Sudeste 15 Sudeste 0 -- -- 78
2019-04-01 08:00:00 11.2 6 Sudeste 12 Sudeste 0.2 -- -- 77
2019-04-01 07:00:00 11.9 3 Sudeste 19 Sudeste 0.4 -- -- 73
2019-04-01 06:00:00 12.7 11 Sudeste 33 Sur 0.4 -- -- 70
2019-04-01 05:00:00 13.3 13 Sur 28 Sur 0 -- -- 62
2019-04-01 04:00:00 12 7 Sudeste 15 Sur 0 -- -- 68
2019-04-01 03:00:00 12.5 0 Calma 6 Sudeste 0 -- -- 63
2019-04-01 02:00:00 12.2 4 Sudoeste 10 Sudeste 0 -- -- 67
2019-04-01 01:00:00 12.1 6 Sudeste 14 Este 0 -- -- 71
2019-04-01 00:00:00 12.6 10 Este 17 Sudeste 0 -- -- 72
2019-03-31 23:00:00 12.5 12 Sudeste 20 Este 0 -- -- 75
2019-03-31 22:00:00 12.4 14 Sudeste 23 Este 0 -- -- 79
2019-03-31 21:00:00 12.4 15 Sudeste 24 Este 0 -- -- 84
2019-03-31 20:00:00 13.7 16 Este 22 Este 0 -- -- 75
2019-03-31 19:00:00 15.1 13 Sudeste 22 Sudeste 0 -- -- 59
2019-03-31 18:00:00 15.4 13 Sudeste 24 Este 0 -- -- 64
2019-03-31 17:00:00 15.5 18 Este 25 Este 0 -- -- 80
2019-03-31 16:00:00 16.5 15 Este 22 Este 0 -- -- 68
2019-03-31 15:00:00 16.9 12 Este 15 Este 0 -- -- 59
2019-03-31 14:00:00 18.8 10 Este 18 Este 0 -- -- 46
2019-03-31 13:00:00 16.8 13 Este 18 Este 0 -- -- 49
2019-03-31 12:00:00 16.6 10 Este 15 Este 0 -- -- 53
2019-03-31 11:00:00 15.5 10 Sudeste 20 Sudeste 0 -- -- 65
2019-03-31 10:00:00 14.5 14 Sudeste 19 Sudeste 0 -- -- 65
2019-03-31 09:00:00 13.1 9 Sudeste 14 Sudeste 0 -- -- 76
2019-03-31 08:00:00 10.7 7 Sudeste 10 Sudeste 0 -- -- 79
2019-03-31 07:00:00 10.5 4 Este 6 Este 0 -- -- 87
2019-03-31 06:00:00 10.2 4 Sudeste 6 Este 0 -- -- 78
2019-03-31 05:00:00 11.1 2 Sudoeste 5 Oeste 0 -- -- 85
2019-03-31 03:00:00 11 4 Oeste 12 Oeste 0 -- -- 84
2019-03-31 01:00:00 11.1 10 Sudoeste 13 Sudoeste 0 -- -- 89
2019-03-31 00:00:00 11.3 8 Oeste 12 Sudoeste 0 -- -- 88
2019-03-30 23:00:00 11.9 10 Sudoeste 14 Sudoeste 0 -- -- 89
2019-03-30 22:00:00 11.9 10 Sudoeste 15 Sudoeste 0 -- -- 86
2019-03-30 21:00:00 12.7 11 Sudoeste 23 Sudoeste 0 -- -- 86
2019-03-30 20:00:00 14 3 Noroeste 14 Sudeste 0 -- -- 55
2019-03-30 19:00:00 15.3 10 Sudeste 19 Sudeste 0 -- -- 54
2019-03-30 18:00:00 16.3 12 Sudeste 20 Sudeste 0 -- -- 57
2019-03-30 17:00:00 17.7 14 Este 19 Este 0 -- -- 50
2019-03-30 16:00:00 17.7 13 Este 18 Este 0 -- -- 50
2019-03-30 15:00:00 19.1 13 Este 20 Este 0 -- -- 43
2019-03-30 14:00:00 18.7 11 Este 18 Este 0 -- -- 44
2019-03-30 13:00:00 20.7 4 Noroeste 16 Oeste 0 -- -- 39
2019-03-30 12:00:00 20.4 6 Oeste 39 Sur 0 -- -- 35
2019-03-30 11:00:00 19.2 18 Sur 48 Sur 0 -- -- 34
2019-03-30 10:00:00 17.5 34 Sur 55 Sur 0 -- -- 34
2019-03-30 09:00:00 16.4 39 Sur 59 Sur 0 -- -- 36
2019-03-30 08:00:00 16.4 42 Sur 62 Sur 0 -- -- 35
2019-03-30 07:00:00 15.9 40 Sur 57 Sur 0 -- -- 36
2019-03-30 06:00:00 14.8 6 Sudeste 28 Sudoeste 0 -- -- 40
2019-03-30 05:00:00 15.3 6 Sudeste 28 Sudoeste 0 -- -- 39
2019-03-30 04:00:00 15.8 4 Sudoeste 23 Sudoeste 0 -- -- 38
2019-03-30 03:00:00 13.9 5 Sudeste 18 Este 0 -- -- 48
2019-03-30 02:00:00 12.2 9 Este 13 Este 0 -- -- 71
2019-03-30 01:00:00 12 5 Sudeste 12 Sudoeste 0 -- -- 66
2019-03-30 00:00:00 11.4 5 Sudoeste 17 Oeste 0 -- -- 89
2019-03-29 23:00:00 11.4 15 Sudoeste 24 Sudoeste 0 -- -- 90
2019-03-29 22:00:00 11.6 18 Sudoeste 25 Sudoeste 0 -- -- 88
2019-03-29 21:00:00 12.3 16 Oeste 23 Sudoeste 0 -- -- 85
2019-03-29 20:00:00 12.4 12 Sudeste 30 Este 0 -- -- 86
2019-03-29 19:00:00 12.9 19 Este 35 Este 0 -- -- 82
2019-03-29 18:00:00 13.8 22 Sudeste 37 Este 0 -- -- 74
2019-03-29 17:00:00 14.1 27 Este 36 Este 0 -- -- 69
2019-03-29 16:00:00 14.2 20 Este 30 Este 0 -- -- 73
2019-03-29 15:00:00 14.5 23 Este 31 Este 0 -- -- 68
2019-03-29 14:00:00 14.7 20 Este 31 Este 0 -- -- 69
2019-03-29 13:00:00 14.4 21 Este 31 Sudeste 0 -- -- 72
2019-03-29 12:00:00 14.5 17 Este 24 Este 0 -- -- 66
2019-03-29 11:00:00 14.1 13 Este 20 Este 0 -- -- 62
2019-03-29 10:00:00 13.9 7 Sudeste 17 Sudeste 0 -- -- 61
2019-03-29 09:00:00 12.7 4 Nordeste 9 Sudeste 0 -- -- 67
2019-03-29 08:00:00 10.5 0 Calma 8 Sudeste 0 -- -- 67
2019-03-29 07:00:00 7.8 6 Sudeste 8 Sudeste 0 -- -- 73
2019-03-29 06:00:00 8.1 4 Sudoeste 6 Sudoeste 0 -- -- 78
2019-03-29 05:00:00 7.5 4 Sudoeste 5 Oeste 0 -- -- 80
2019-03-29 04:00:00 7.8 3 Oeste 15 Oeste 0 -- -- 82
2019-03-29 03:00:00 9.6 8 Oeste 22 Oeste 0 -- -- 77
2019-03-29 02:00:00 9.4 12 Oeste 22 Oeste 0 -- -- 84
2019-03-29 01:00:00 9.7 14 Sudoeste 21 Sudoeste 0 -- -- 87
2019-03-29 00:00:00 9.6 13 Sudoeste 17 Oeste 0 -- -- 88
2019-03-28 23:00:00 8.7 6 Sudoeste 10 Sudoeste 0 -- -- 89
2019-03-28 22:00:00 8.8 5 Sudoeste 7 Oeste 0 -- -- 88
2019-03-28 21:00:00 9.1 0 Calma 6 Noroeste 0 -- -- 87
2019-03-28 20:00:00 9.3 0 Calma 5 Norte 0 -- -- 83
2019-03-28 19:00:00 11.2 4 Este 10 Este 0 -- -- 77
2019-03-28 18:00:00 12 3 Norte 9 Norte 0 -- -- 73
2019-03-28 17:00:00 14.1 5 Norte 15 Noroeste 0 -- -- 66
2019-03-28 16:00:00 14 8 Noroeste 14 Noroeste 0 -- -- 68
2019-03-28 15:00:00 13.6 10 Noroeste 15 Noroeste 0 -- -- 67
2019-03-28 14:00:00 13.4 11 Noroeste 15 Noroeste 0 -- -- 68
2019-03-28 13:00:00 13.1 12 Noroeste 24 Oeste 0 -- -- 70
2019-03-28 12:00:00 12.3 21 Oeste 27 Oeste 0 -- -- 79
2019-03-28 11:00:00 11.7 20 Oeste 28 Oeste 0 -- -- 81
2019-03-28 10:00:00 11.5 18 Oeste 28 Sudoeste 0 -- -- 80
2019-03-28 09:00:00 11.6 12 Oeste 21 Oeste 0 -- -- 80
2019-03-28 08:00:00 10.3 14 Sudoeste 25 Sudoeste 0 -- -- 85
2019-03-28 07:00:00 9.3 15 Sudoeste 24 Sudoeste 0 -- -- 87
2019-03-28 06:00:00 9.5 15 Sudoeste 23 Sudoeste 0 -- -- 86
2019-03-28 05:00:00 9.6 16 Sudoeste 30 Sudoeste 0 -- -- 86
2019-03-28 04:00:00 9.9 20 Sudoeste 32 Sudoeste 0 -- -- 86
2019-03-28 03:00:00 9.7 19 Oeste 32 Sudoeste 0 -- -- 88
2019-03-28 02:00:00 9.9 20 Oeste 29 Oeste 0 -- -- 88
2019-03-28 01:00:00 10.3 21 Oeste 29 Oeste 0 -- -- 85
2019-03-28 00:00:00 10.2 20 Oeste 26 Oeste 0 -- -- 85
2019-03-27 23:00:00 10.3 12 Oeste 16 Oeste 0 -- -- 83
2019-03-27 22:00:00 10.1 7 Noroeste 10 Noroeste 0 -- -- 81
2019-03-27 21:00:00 10.3 3 Norte 13 Nordeste 0 -- -- 76
2019-03-27 20:00:00 10.2 4 Norte 13 Nordeste 0 -- -- 70
2019-03-27 19:00:00 10.4 7 Norte 13 Nordeste 0 -- -- 70
2019-03-27 18:00:00 12.2 5 Norte 13 Noroeste 0 -- -- 67
2019-03-27 17:00:00 12.7 6 Noroeste 19 Noroeste 0 -- -- 62
2019-03-27 16:00:00 13.4 9 Noroeste 16 Noroeste 0 -- -- 62
2019-03-27 15:00:00 13.1 10 Noroeste 16 Noroeste 0 -- -- 64
2019-03-27 14:00:00 12.6 10 Noroeste 14 Noroeste 0 -- -- 63
2019-03-27 13:00:00 13 4 Noroeste 12 Nordeste 0 -- -- 63
2019-03-27 12:00:00 12.7 9 Nordeste 17 Este 0 -- -- 64
2019-03-27 11:00:00 12.5 9 Este 15 Este 0 -- -- 65
2019-03-27 10:00:00 11.9 10 Este 17 Este 0 -- -- 63
2019-03-27 09:00:00 11.8 10 Este 17 Este 0 -- -- 62
2019-03-27 08:00:00 10.4 8 Este 17 Sudeste 0 -- -- 65
2019-03-27 07:00:00 8.4 13 Este 17 Este 0 -- -- 69
2019-03-27 06:00:00 8.7 11 Este 18 Este 0 -- -- 70
2019-03-27 05:00:00 9 13 Este 22 Este 0 -- -- 65
2019-03-27 04:00:00 9.2 12 Sudeste 26 Este 0 -- -- 67
2019-03-27 03:00:00 9.9 19 Este 33 Este 0 -- -- 67
2019-03-27 02:00:00 10.6 21 Este 51 Este 0 -- -- 67
2019-03-27 01:00:00 11.5 40 Este 54 Este 0 -- -- 66
2019-03-27 00:00:00 11.8 41 Este 49 Este 0 -- -- 71